Airfield :
LOGIN :

Register | Disclaimer

   EN    FR    IT 

 










Legend :    VFR   Marginal VFR   IFR   Intensive IFR   Very Intensive IFR
Visi :
Ceiling :
>= 8 km
>= 3000ft
5 to 8 km
1000 to 3000 ft
1500m to 5 km
500 to 1000 ft
800 to 1500m
200 to 500 ft
< 800m
< 200 ft
Symbols :   Thunderstorms  Fog  Heavy snow  Heavy precipitations  Wind > 20 kt
SIGMETs :     Misc.  Thunderstorms  Icing  Turbulence  Mountain Waves  Volcanic Ashes






- Airport Elevation : 112 ft
- IATA code : SVQ


LEZL - Sevilla San Pablo

CURRENT METAR :
  • 261400Z 16011KT 140V200 9999 SCT030 14/09 Q1007 NOSIG

EXPIRED METARs :
  • 261330Z 15013KT 120V190 9999 BKN030 14/09 Q1007 NOSIG
  • 261300Z 12007KT 080V150 9999 BKN030 13/11 Q1007 NOSIG
  • 261230Z 13005KT 9999 BKN030 13/11 Q1007 NOSIG
  • 261200Z 15003KT 110V170 9999 BKN030 12/11 Q1008 NOSIG
  • 261130Z 10005KT 070V130 9999 -RA BKN028 12/11 Q1008 RERA NOSIG

TAF TAF LEZL
Valid from the 26 at 15:00 until the 27 at 15:00 UTC


261400Z 2615/2715 15007KT 9999 SCT030 TX14/2714Z TN09/2701Z
PROB30
TEMPO 2615/2618 4000 SHRA SCT020TCU FEW030CB
BECMG 2620/2622 06010KT



MET'MAP, your aeronautical weather chart ! - Copyright ORBIFLY December 2007 - Disclaimer

ORBIFLY MET'MAP TEAM :

Programming & Development : Alexandra Zaïnal
Concept & original design : Baudouin d'Aumeries
Assistance for programming : Marc-Olivier Méhu
Technical & hardware support : Manuel Goepfert

Contact : metmap@orbifly.com




SOURCES & CREDITS :

   NOAA